Main page
Satellite images 15-day forecastsClimateMarine weather Cyclones Lightning AirportsFAQ Newsletter About
Weather : Europe Africa North America South America Asia Australia-Oceania Others
Languages Contact

Baia Mare, Romania

latitude: 47-40N, longitude: 023-35E, elevation: 218 m


METAR: LRBM 241630Z 17002KT 9999 FEW024CB SCT030 23/18 Q1011 R10/19//95
short-TAF: LRBM 241400Z 2415/2424 VRB04KT 9999 SCT035CB TEMPO 2415/2417 5000 TSRA BKN030CB BECMG 2417/2419 NSC
long-TAF: out of date (118 hours)

Time: 20:01 (17:01 UTC)

Current weather observation

The report was made 31 minutes ago, at 16:30 UTC  
Wind 02 kt from the South
Temperature 23°C
Humidity 73%
Pressure 1011 hPa
Visibility 10 km or more
Few clouds at a height of 2400 ft , Cumulonimbus.
Scattered clouds at a height of 3000 ft

Change units

Forecast

The report was made 2 hours and 31 minutes ago, at 14:30 UTC  
Forecast valid from 24 at 15 UTC to 24 at 24 UTC
Wind 04 kt from variable directions
Visibility 10 km or more
Scattered clouds at a height of 3500 ft , Cumulonimbus.
Temporary
from 24 at 15 UTC to 24 at 17 UTC
Visibility 5000 m
Broken clouds at a height of 3000 ft , Cumulonimbus.
thunderstorm rain
Becoming
from 24 at 17 UTC to 24 at 19 UTC
The information on this site is subject to a disclaimer
Weather : Europe Africa North America South America Asia Australia-Oceania Others
Satellite images 15-day forecastsClimateMarine weather Cyclones Lightning AirportsFAQ Languages Contact Newsletter About